sensor_id;sensor_type;location;lat;lon;timestamp;P1;durP1;ratioP1;P2;durP2;ratioP2
40048;SDS011;54524;55.740;37.544;2023-11-19T00:01:03;15.9;;;8.2;;
40048;SDS011;54524;55.740;37.544;2023-11-19T00:02:05;15.5;;;8.2;;
40048;SDS011;54524;55.740;37.544;2023-11-19T00:03:08;11.9;;;7.6;;
40048;SDS011;54524;55.740;37.544;2023-11-19T00:04:09;11.9;;;7.5;;
40048;SDS011;54524;55.740;37.544;2023-11-19T00:05:09;12.6;;;7.5;;
40048;SDS011;54524;55.740;37.544;2023-11-19T00:06:11;13.2;;;7.6;;
40048;SDS011;54524;55.740;37.544;2023-11-19T00:07:12;13.3;;;7.6;;
40048;SDS011;54524;55.740;37.544;2023-11-19T00:08:14;13.1;;;7.5;;
40048;SDS011;54524;55.740;37.544;2023-11-19T00:09:14;14.6;;;7.6;;
40048;SDS011;54524;55.740;37.544;2023-11-19T00:11:03;14.3;;;7.6;;
40048;SDS011;54524;55.740;37.544;2023-11-19T00:12:04;14.4;;;7.7;;
40048;SDS011;54524;55.740;37.544;2023-11-19T00:13:05;12.7;;;7.4;;
40048;SDS011;54524;55.740;37.544;2023-11-19T00:14:05;12.9;;;7.3;;
40048;SDS011;54524;55.740;37.544;2023-11-19T00:15:08;12.8;;;7.3;;
40048;SDS011;54524;55.740;37.544;2023-11-19T00:16:11;16.5;;;7.7;;
40048;SDS011;54524;55.740;37.544;2023-11-19T00:17:12;16.1;;;7.7;;
40048;SDS011;54524;55.740;37.544;2023-11-19T00:18:13;15.2;;;7.7;;
40048;SDS011;54524;55.740;37.544;2023-11-19T00:19:14;13.6;;;7.4;;
40048;SDS011;54524;55.740;37.544;2023-11-19T00:21:03;13.4;;;7.4;;
40048;SDS011;54524;55.740;37.544;2023-11-19T00:22:03;15.3;;;7.5;;
40048;SDS011;54524;55.740;37.544;2023-11-19T00:23:04;14.5;;;7.5;;
40048;SDS011;54524;55.740;37.544;2023-11-19T00:24:04;14.7;;;7.6;;
40048;SDS011;54524;55.740;37.544;2023-11-19T00:25:05;14.7;;;7.8;;
40048;SDS011;54524;55.740;37.544;2023-11-19T00:26:06;14.9;;;7.9;;
40048;SDS011;54524;55.740;37.544;2023-11-19T00:27:07;14.3;;;7.8;;
40048;SDS011;54524;55.740;37.544;2023-11-19T00:28:08;13.6;;;7.8;;
40048;SDS011;54524;55.740;37.544;2023-11-19T00:29:08;13.4;;;7.7;;
40048;SDS011;54524;55.740;37.544;2023-11-19T00:31:03;12.2;;;8;;
40048;SDS011;54524;55.740;37.544;2023-11-19T00:32:04;12.4;;;8.1;;
40048;SDS011;54524;55.740;37.544;2023-11-19T00:33:05;12.6;;;8.1;;
40048;SDS011;54524;55.740;37.544;2023-11-19T00:34:06;14.6;;;8;;
40048;SDS011;54524;55.740;37.544;2023-11-19T00:35:07;14.6;;;7.9;;
40048;SDS011;54524;55.740;37.544;2023-11-19T00:36:08;14.3;;;7.8;;
40048;SDS011;54524;55.740;37.544;2023-11-19T00:37:08;15.2;;;7.6;;
40048;SDS011;54524;55.740;37.544;2023-11-19T00:38:09;15.1;;;7.6;;
40048;SDS011;54524;55.740;37.544;2023-11-19T00:39:09;15;;;7.6;;
40048;SDS011;54524;55.740;37.544;2023-11-19T00:41:03;18.5;;;8.2;;
40048;SDS011;54524;55.740;37.544;2023-11-19T00:42:04;18.1;;;8.1;;
40048;SDS011;54524;55.740;37.544;2023-11-19T00:43:05;13.6;;;8.4;;
40048;SDS011;54524;55.740;37.544;2023-11-19T00:44:05;13.2;;;8.3;;
40048;SDS011;54524;55.740;37.544;2023-11-19T00:45:06;13.6;;;8.4;;
40048;SDS011;54524;55.740;37.544;2023-11-19T00:46:09;16;;;8.3;;
40048;SDS011;54524;55.740;37.544;2023-11-19T00:47:11;16.1;;;8.3;;
40048;SDS011;54524;55.740;37.544;2023-11-19T00:48:12;15.5;;;8.4;;
40048;SDS011;54524;55.740;37.544;2023-11-19T00:49:13;13.6;;;8.5;;
40048;SDS011;54524;55.740;37.544;2023-11-19T00:51:03;13.5;;;8.6;;
40048;SDS011;54524;55.740;37.544;2023-11-19T00:52:04;15.3;;;8.5;;
40048;SDS011;54524;55.740;37.544;2023-11-19T00:53:05;15.3;;;8.5;;
40048;SDS011;54524;55.740;37.544;2023-11-19T00:54:05;15.3;;;8.4;;
40048;SDS011;54524;55.740;37.544;2023-11-19T00:55:06;13.9;;;8.4;;
40048;SDS011;54524;55.740;37.544;2023-11-19T00:56:07;13.9;;;8.4;;
40048;SDS011;54524;55.740;37.544;2023-11-19T00:57:07;14;;;8.4;;
40048;SDS011;54524;55.740;37.544;2023-11-19T00:58:08;17.1;;;8.7;;
40048;SDS011;54524;55.740;37.544;2023-11-19T00:59:09;17.1;;;8.7;;
40048;SDS011;54524;55.740;37.544;2023-11-19T01:01:03;16.9;;;8.6;;
40048;SDS011;54524;55.740;37.544;2023-11-19T01:02:05;13.5;;;8.5;;
40048;SDS011;54524;55.740;37.544;2023-11-19T01:03:06;13.7;;;8.5;;
40048;SDS011;54524;55.740;37.544;2023-11-19T01:04:07;14;;;8.5;;
40048;SDS011;54524;55.740;37.544;2023-11-19T01:05:08;15.1;;;8.5;;
40048;SDS011;54524;55.740;37.544;2023-11-19T01:06:09;15.4;;;8.6;;
40048;SDS011;54524;55.740;37.544;2023-11-19T01:07:10;15.4;;;8.6;;
40048;SDS011;54524;55.740;37.544;2023-11-19T01:08:12;16.5;;;8.5;;
40048;SDS011;54524;55.740;37.544;2023-11-19T01:09:13;16.4;;;8.4;;
40048;SDS011;54524;55.740;37.544;2023-11-19T01:11:04;16.4;;;8.9;;
40048;SDS011;54524;55.740;37.544;2023-11-19T01:12:05;15.8;;;8.8;;
40048;SDS011;54524;55.740;37.544;2023-11-19T01:13:06;15.9;;;8.9;;
40048;SDS011;54524;55.740;37.544;2023-11-19T01:14:06;16.1;;;8.6;;
40048;SDS011;54524;55.740;37.544;2023-11-19T01:15:07;15.5;;;8.5;;
40048;SDS011;54524;55.740;37.544;2023-11-19T01:16:08;16;;;8.6;;
40048;SDS011;54524;55.740;37.544;2023-11-19T01:17:10;16;;;8.8;;
40048;SDS011;54524;55.740;37.544;2023-11-19T01:18:10;16.2;;;8.8;;
40048;SDS011;54524;55.740;37.544;2023-11-19T01:19:11;16.1;;;8.8;;
40048;SDS011;54524;55.740;37.544;2023-11-19T01:21:02;14.9;;;8.8;;
40048;SDS011;54524;55.740;37.544;2023-11-19T01:22:03;15;;;8.9;;
40048;SDS011;54524;55.740;37.544;2023-11-19T01:23:04;16.6;;;9;;
40048;SDS011;54524;55.740;37.544;2023-11-19T01:24:05;16.8;;;9.1;;
40048;SDS011;54524;55.740;37.544;2023-11-19T01:25:09;16.5;;;9.1;;
40048;SDS011;54524;55.740;37.544;2023-11-19T01:26:10;14.6;;;8.4;;
40048;SDS011;54524;55.740;37.544;2023-11-19T01:27:10;14.7;;;8.5;;
40048;SDS011;54524;55.740;37.544;2023-11-19T01:28:11;15.6;;;8.5;;
40048;SDS011;54524;55.740;37.544;2023-11-19T01:29:11;17.4;;;8.8;;
40048;SDS011;54524;55.740;37.544;2023-11-19T01:31:03;17.2;;;8.8;;
40048;SDS011;54524;55.740;37.544;2023-11-19T01:32:04;17.1;;;8.8;;
40048;SDS011;54524;55.740;37.544;2023-11-19T01:33:05;17.2;;;8.8;;
40048;SDS011;54524;55.740;37.544;2023-11-19T01:34:07;17.3;;;8.8;;
40048;SDS011;54524;55.740;37.544;2023-11-19T01:35:08;16.1;;;9.2;;
40048;SDS011;54524;55.740;37.544;2023-11-19T01:36:09;16.3;;;9.1;;
40048;SDS011;54524;55.740;37.544;2023-11-19T01:37:10;16.3;;;9.1;;
40048;SDS011;54524;55.740;37.544;2023-11-19T01:38:12;14.1;;;8.3;;
40048;SDS011;54524;55.740;37.544;2023-11-19T01:39:12;13.9;;;8.2;;
40048;SDS011;54524;55.740;37.544;2023-11-19T01:41:03;6.30;;;1.20;;
40048;SDS011;54524;55.740;37.544;2023-11-19T01:42:04;17.4;;;8.3;;
40048;SDS011;54524;55.740;37.544;2023-11-19T01:43:04;17.4;;;8.4;;
40048;SDS011;54524;55.740;37.544;2023-11-19T01:44:05;17.5;;;8.4;;
40048;SDS011;54524;55.740;37.544;2023-11-19T01:45:06;15.9;;;8.4;;
40048;SDS011;54524;55.740;37.544;2023-11-19T01:46:08;15.9;;;8.4;;
40048;SDS011;54524;55.740;37.544;2023-11-19T01:47:10;15.9;;;8.4;;
40048;SDS011;54524;55.740;37.544;2023-11-19T01:48:10;14.4;;;8.1;;
40048;SDS011;54524;55.740;37.544;2023-11-19T01:49:11;14.3;;;8.1;;
40048;SDS011;54524;55.740;37.544;2023-11-19T01:51:03;14.2;;;8.1;;
40048;SDS011;54524;55.740;37.544;2023-11-19T01:52:04;14.3;;;8.1;;
40048;SDS011;54524;55.740;37.544;2023-11-19T01:53:05;14.2;;;8.1;;
40048;SDS011;54524;55.740;37.544;2023-11-19T01:54:06;14.8;;;8.2;;
40048;SDS011;54524;55.740;37.544;2023-11-19T01:55:07;15;;;8.3;;
40048;SDS011;54524;55.740;37.544;2023-11-19T01:56:09;14.9;;;8.3;;
40048;SDS011;54524;55.740;37.544;2023-11-19T01:57:12;15.9;;;8.3;;
40048;SDS011;54524;55.740;37.544;2023-11-19T01:58:12;14.6;;;8.3;;
40048;SDS011;54524;55.740;37.544;2023-11-19T01:59:13;14.3;;;8.3;;
40048;SDS011;54524;55.740;37.544;2023-11-19T02:01:02;15.7;;;8.2;;
40048;SDS011;54524;55.740;37.544;2023-11-19T02:02:04;15.5;;;8.2;;
40048;SDS011;54524;55.740;37.544;2023-11-19T02:03:05;13.6;;;8.1;;
40048;SDS011;54524;55.740;37.544;2023-11-19T02:04:07;13.7;;;8.2;;
40048;SDS011;54524;55.740;37.544;2023-11-19T02:05:08;13.8;;;8.3;;
40048;SDS011;54524;55.740;37.544;2023-11-19T02:06:08;16.1;;;8.3;;
40048;SDS011;54524;55.740;37.544;2023-11-19T02:07:10;16.5;;;8.4;;
40048;SDS011;54524;55.740;37.544;2023-11-19T02:08:11;18.1;;;8.4;;
40048;SDS011;54524;55.740;37.544;2023-11-19T02:09:13;15.4;;;8;;
40048;SDS011;54524;55.740;37.544;2023-11-19T02:11:02;15.6;;;8;;
40048;SDS011;54524;55.740;37.544;2023-11-19T02:12:03;14.6;;;7.9;;
40048;SDS011;54524;55.740;37.544;2023-11-19T02:13:04;14.8;;;8;;
40048;SDS011;54524;55.740;37.544;2023-11-19T02:14:06;14.7;;;8;;
40048;SDS011;54524;55.740;37.544;2023-11-19T02:15:07;14.7;;;8.4;;
40048;SDS011;54524;55.740;37.544;2023-11-19T02:16:08;15.2;;;8.4;;
40048;SDS011;54524;55.740;37.544;2023-11-19T02:17:24;15.2;;;8.4;;
40048;SDS011;54524;55.740;37.544;2023-11-19T02:18:26;13.5;;;8.1;;
40048;SDS011;54524;55.740;37.544;2023-11-19T02:19:28;13.5;;;8.1;;
40048;SDS011;54524;55.740;37.544;2023-11-19T02:21:02;12.8;;;8.2;;
40048;SDS011;54524;55.740;37.544;2023-11-19T02:22:03;16.2;;;9;;
40048;SDS011;54524;55.740;37.544;2023-11-19T02:23:04;16.3;;;9.1;;
40048;SDS011;54524;55.740;37.544;2023-11-19T02:24:06;16.1;;;9.1;;
40048;SDS011;54524;55.740;37.544;2023-11-19T02:25:10;16.8;;;8.6;;
40048;SDS011;54524;55.740;37.544;2023-11-19T02:26:15;16.7;;;8.5;;
40048;SDS011;54524;55.740;37.544;2023-11-19T02:27:21;16.3;;;8.5;;
40048;SDS011;54524;55.740;37.544;2023-11-19T02:28:23;12.4;;;8.2;;
40048;SDS011;54524;55.740;37.544;2023-11-19T02:29:23;12.3;;;8.2;;
40048;SDS011;54524;55.740;37.544;2023-11-19T02:31:03;12.5;;;8.3;;
40048;SDS011;54524;55.740;37.544;2023-11-19T02:32:05;17.7;;;8.6;;
40048;SDS011;54524;55.740;37.544;2023-11-19T02:33:05;17.6;;;8.5;;
40048;SDS011;54524;55.740;37.544;2023-11-19T02:34:06;17.2;;;8.6;;
40048;SDS011;54524;55.740;37.544;2023-11-19T02:35:07;15;;;8.7;;
40048;SDS011;54524;55.740;37.544;2023-11-19T02:36:08;15.3;;;8.7;;
40048;SDS011;54524;55.740;37.544;2023-11-19T02:37:09;15.7;;;8.8;;
40048;SDS011;54524;55.740;37.544;2023-11-19T02:38:10;14.6;;;8.3;;
40048;SDS011;54524;55.740;37.544;2023-11-19T02:39:11;14.6;;;8.3;;
40048;SDS011;54524;55.740;37.544;2023-11-19T02:41:03;15.7;;;8.8;;
40048;SDS011;54524;55.740;37.544;2023-11-19T02:42:05;16.2;;;8.9;;
40048;SDS011;54524;55.740;37.544;2023-11-19T02:43:06;16.1;;;8.8;;
40048;SDS011;54524;55.740;37.544;2023-11-19T02:44:08;17.9;;;8;;
40048;SDS011;54524;55.740;37.544;2023-11-19T02:45:09;17.3;;;8.1;;
40048;SDS011;54524;55.740;37.544;2023-11-19T02:46:14;16.9;;;8;;
40048;SDS011;54524;55.740;37.544;2023-11-19T02:47:15;14.1;;;8.2;;
40048;SDS011;54524;55.740;37.544;2023-11-19T02:48:16;13.9;;;8.1;;
40048;SDS011;54524;55.740;37.544;2023-11-19T02:49:16;13.6;;;8.3;;
40048;SDS011;54524;55.740;37.544;2023-11-19T02:51:03;12.9;;;7.6;;
40048;SDS011;54524;55.740;37.544;2023-11-19T02:52:04;12.7;;;7.6;;
40048;SDS011;54524;55.740;37.544;2023-11-19T02:53:06;13.7;;;6.7;;
40048;SDS011;54524;55.740;37.544;2023-11-19T02:54:06;13.6;;;6.6;;
40048;SDS011;54524;55.740;37.544;2023-11-19T02:55:07;13.4;;;6.6;;
40048;SDS011;54524;55.740;37.544;2023-11-19T02:56:10;14.3;;;8.1;;
40048;SDS011;54524;55.740;37.544;2023-11-19T02:57:15;14;;;8.2;;
40048;SDS011;54524;55.740;37.544;2023-11-19T02:58:19;14.1;;;8.2;;
40048;SDS011;54524;55.740;37.544;2023-11-19T02:59:23;13.1;;;8.1;;
40048;SDS011;54524;55.740;37.544;2023-11-19T03:01:02;13.5;;;8.2;;
40048;SDS011;54524;55.740;37.544;2023-11-19T03:02:12;14.1;;;7.9;;
40048;SDS011;54524;55.740;37.544;2023-11-19T03:03:16;14.1;;;8;;
40048;SDS011;54524;55.740;37.544;2023-11-19T03:04:28;14;;;8;;
40048;SDS011;54524;55.740;37.544;2023-11-19T03:05:29;14.3;;;7.6;;
40048;SDS011;54524;55.740;37.544;2023-11-19T03:06:30;14.2;;;7.5;;
40048;SDS011;54524;55.740;37.544;2023-11-19T03:07:31;14.2;;;7.5;;
40048;SDS011;54524;55.740;37.544;2023-11-19T03:08:32;16;;;8;;
40048;SDS011;54524;55.740;37.544;2023-11-19T03:09:33;16;;;8;;
40048;SDS011;54524;55.740;37.544;2023-11-19T03:11:03;15.6;;;7.9;;
40048;SDS011;54524;55.740;37.544;2023-11-19T03:12:05;16.1;;;7.9;;
40048;SDS011;54524;55.740;37.544;2023-11-19T03:13:07;16.2;;;7.9;;
40048;SDS011;54524;55.740;37.544;2023-11-19T03:14:12;15.2;;;7.9;;
40048;SDS011;54524;55.740;37.544;2023-11-19T03:15:12;19.1;;;8.4;;
40048;SDS011;54524;55.740;37.544;2023-11-19T03:16:13;18;;;8.5;;
40048;SDS011;54524;55.740;37.544;2023-11-19T03:17:14;18.1;;;8.5;;
40048;SDS011;54524;55.740;37.544;2023-11-19T03:18:14;24.5;;;9.6;;
40048;SDS011;54524;55.740;37.544;2023-11-19T03:19:15;24.5;;;9.5;;
40048;SDS011;54524;55.740;37.544;2023-11-19T03:21:02;20.3;;;9.4;;
40048;SDS011;54524;55.740;37.544;2023-11-19T03:22:03;20.4;;;9.4;;
40048;SDS011;54524;55.740;37.544;2023-11-19T03:23:04;20;;;9.4;;
40048;SDS011;54524;55.740;37.544;2023-11-19T03:24:06;19.5;;;9.5;;
40048;SDS011;54524;55.740;37.544;2023-11-19T03:25:08;18.7;;;9.5;;
40048;SDS011;54524;55.740;37.544;2023-11-19T03:26:10;18.5;;;9.4;;
40048;SDS011;54524;55.740;37.544;2023-11-19T03:27:10;19.4;;;9.8;;
40048;SDS011;54524;55.740;37.544;2023-11-19T03:28:11;19.9;;;9.9;;
40048;SDS011;54524;55.740;37.544;2023-11-19T03:29:12;19.9;;;10;;
40048;SDS011;54524;55.740;37.544;2023-11-19T03:31:05;6.30;;;1.20;;
40048;SDS011;54524;55.740;37.544;2023-11-19T03:32:08;17.5;;;10.2;;
40048;SDS011;54524;55.740;37.544;2023-11-19T03:33:09;20.3;;;10.3;;
40048;SDS011;54524;55.740;37.544;2023-11-19T03:34:09;20.3;;;10.3;;
40048;SDS011;54524;55.740;37.544;2023-11-19T03:35:10;20.3;;;10.3;;
40048;SDS011;54524;55.740;37.544;2023-11-19T03:36:12;21.2;;;9.6;;
40048;SDS011;54524;55.740;37.544;2023-11-19T03:37:13;21.4;;;9.7;;
40048;SDS011;54524;55.740;37.544;2023-11-19T03:38:17;20.8;;;9.6;;
40048;SDS011;54524;55.740;37.544;2023-11-19T03:39:18;22.5;;;11.1;;
40048;SDS011;54524;55.740;37.544;2023-11-19T03:41:09;22.5;;;11.1;;
40048;SDS011;54524;55.740;37.544;2023-11-19T03:42:10;22.6;;;11.1;;
40048;SDS011;54524;55.740;37.544;2023-11-19T03:43:13;16.3;;;9.4;;
40048;SDS011;54524;55.740;37.544;2023-11-19T03:44:14;17.1;;;9.3;;
40048;SDS011;54524;55.740;37.544;2023-11-19T03:45:14;16.9;;;9.3;;
40048;SDS011;54524;55.740;37.544;2023-11-19T03:46:17;27.8;;;11.9;;
40048;SDS011;54524;55.740;37.544;2023-11-19T03:47:17;27.9;;;11.9;;
40048;SDS011;54524;55.740;37.544;2023-11-19T03:48:18;27.4;;;11.9;;
40048;SDS011;54524;55.740;37.544;2023-11-19T03:49:19;22.8;;;11.1;;
40048;SDS011;54524;55.740;37.544;2023-11-19T03:51:03;24.1;;;11.2;;
40048;SDS011;54524;55.740;37.544;2023-11-19T03:52:04;19.6;;;10.7;;
40048;SDS011;54524;55.740;37.544;2023-11-19T03:53:05;19.5;;;10.7;;
40048;SDS011;54524;55.740;37.544;2023-11-19T03:54:06;19.7;;;10.8;;
40048;SDS011;54524;55.740;37.544;2023-11-19T03:55:07;19.3;;;9.9;;
40048;SDS011;54524;55.740;37.544;2023-11-19T03:56:08;19.3;;;9.9;;
40048;SDS011;54524;55.740;37.544;2023-11-19T03:57:10;18.4;;;9.9;;
40048;SDS011;54524;55.740;37.544;2023-11-19T03:58:12;19.5;;;9.1;;
40048;SDS011;54524;55.740;37.544;2023-11-19T03:59:12;19.3;;;9.2;;
40048;SDS011;54524;55.740;37.544;2023-11-19T04:01:03;21.1;;;8.9;;
40048;SDS011;54524;55.740;37.544;2023-11-19T04:02:04;21.4;;;9;;
40048;SDS011;54524;55.740;37.544;2023-11-19T04:03:04;21.5;;;9;;
40048;SDS011;54524;55.740;37.544;2023-11-19T04:04:05;17.1;;;9.2;;
40048;SDS011;54524;55.740;37.544;2023-11-19T04:05:06;17.1;;;9.2;;
40048;SDS011;54524;55.740;37.544;2023-11-19T04:06:07;16.7;;;9.2;;
40048;SDS011;54524;55.740;37.544;2023-11-19T04:07:08;17.2;;;9.5;;
40048;SDS011;54524;55.740;37.544;2023-11-19T04:08:08;16.8;;;9.4;;
40048;SDS011;54524;55.740;37.544;2023-11-19T04:09:09;17.7;;;9.6;;
40048;SDS011;54524;55.740;37.544;2023-11-19T04:11:03;17;;;9.2;;
40048;SDS011;54524;55.740;37.544;2023-11-19T04:12:03;17;;;9.3;;
40048;SDS011;54524;55.740;37.544;2023-11-19T04:13:04;22.1;;;9.8;;
40048;SDS011;54524;55.740;37.544;2023-11-19T04:14:05;21.9;;;9.8;;
40048;SDS011;54524;55.740;37.544;2023-11-19T04:15:06;23;;;9.8;;
40048;SDS011;54524;55.740;37.544;2023-11-19T04:16:07;17.1;;;9.4;;
40048;SDS011;54524;55.740;37.544;2023-11-19T04:17:08;18.3;;;9.4;;
40048;SDS011;54524;55.740;37.544;2023-11-19T04:18:08;18.1;;;9.4;;
40048;SDS011;54524;55.740;37.544;2023-11-19T04:19:09;15.8;;;8.5;;
40048;SDS011;54524;55.740;37.544;2023-11-19T04:21:05;6.30;;;1.20;;
40048;SDS011;54524;55.740;37.544;2023-11-19T04:22:06;17;;;8.8;;
40048;SDS011;54524;55.740;37.544;2023-11-19T04:23:06;17.1;;;8.8;;
40048;SDS011;54524;55.740;37.544;2023-11-19T04:24:08;17.4;;;8.7;;
40048;SDS011;54524;55.740;37.544;2023-11-19T04:25:08;16.5;;;8.8;;
40048;SDS011;54524;55.740;37.544;2023-11-19T04:26:09;16.6;;;8.8;;
40048;SDS011;54524;55.740;37.544;2023-11-19T04:27:09;16.8;;;8.8;;
40048;SDS011;54524;55.740;37.544;2023-11-19T04:28:10;15.7;;;10;;
40048;SDS011;54524;55.740;37.544;2023-11-19T04:29:11;15.7;;;10;;
40048;SDS011;54524;55.740;37.544;2023-11-19T04:31:03;16;;;9.9;;
40048;SDS011;54524;55.740;37.544;2023-11-19T04:32:04;36.3;;;20.3;;
40048;SDS011;54524;55.740;37.544;2023-11-19T04:33:05;35.8;;;20;;
40048;SDS011;54524;55.740;37.544;2023-11-19T04:34:06;35;;;19.8;;
40048;SDS011;54524;55.740;37.544;2023-11-19T04:35:07;35.1;;;18.6;;
40048;SDS011;54524;55.740;37.544;2023-11-19T04:36:08;34.9;;;18.6;;
40048;SDS011;54524;55.740;37.544;2023-11-19T04:37:09;35.3;;;18.6;;
40048;SDS011;54524;55.740;37.544;2023-11-19T04:38:09;78.4;;;42.5;;
40048;SDS011;54524;55.740;37.544;2023-11-19T04:39:10;78.2;;;42.5;;
40048;SDS011;54524;55.740;37.544;2023-11-19T04:41:03;19.2;;;10.5;;
40048;SDS011;54524;55.740;37.544;2023-11-19T04:42:06;19.5;;;10.5;;
40048;SDS011;54524;55.740;37.544;2023-11-19T04:43:06;19.6;;;10.5;;
40048;SDS011;54524;55.740;37.544;2023-11-19T04:44:07;17.5;;;8.5;;
40048;SDS011;54524;55.740;37.544;2023-11-19T04:45:09;17.4;;;8.5;;
40048;SDS011;54524;55.740;37.544;2023-11-19T04:46:10;17;;;8.5;;
40048;SDS011;54524;55.740;37.544;2023-11-19T04:47:11;17.8;;;8.4;;
40048;SDS011;54524;55.740;37.544;2023-11-19T04:48:11;17.3;;;8.3;;
40048;SDS011;54524;55.740;37.544;2023-11-19T04:49:13;16.7;;;8.3;;
40048;SDS011;54524;55.740;37.544;2023-11-19T04:51:04;14.6;;;7.3;;
40048;SDS011;54524;55.740;37.544;2023-11-19T04:52:04;14.4;;;7.3;;
40048;SDS011;54524;55.740;37.544;2023-11-19T04:53:05;12.7;;;6.6;;
40048;SDS011;54524;55.740;37.544;2023-11-19T04:54:05;13.3;;;6.7;;
40048;SDS011;54524;55.740;37.544;2023-11-19T04:55:07;13.7;;;6.8;;
40048;SDS011;54524;55.740;37.544;2023-11-19T04:56:08;13;;;6.5;;
40048;SDS011;54524;55.740;37.544;2023-11-19T04:57:09;12.7;;;6.5;;
40048;SDS011;54524;55.740;37.544;2023-11-19T04:58:13;12.6;;;6.5;;
40048;SDS011;54524;55.740;37.544;2023-11-19T04:59:13;12.4;;;6.2;;
40048;SDS011;54524;55.740;37.544;2023-11-19T05:01:03;14.4;;;6.2;;
40048;SDS011;54524;55.740;37.544;2023-11-19T05:02:03;11.4;;;6.3;;
40048;SDS011;54524;55.740;37.544;2023-11-19T05:03:04;11.6;;;6.3;;
40048;SDS011;54524;55.740;37.544;2023-11-19T05:04:05;11.8;;;6.4;;
40048;SDS011;54524;55.740;37.544;2023-11-19T05:05:05;11.9;;;6.5;;
40048;SDS011;54524;55.740;37.544;2023-11-19T05:06:06;12;;;6.6;;
40048;SDS011;54524;55.740;37.544;2023-11-19T05:07:07;12;;;6.5;;
40048;SDS011;54524;55.740;37.544;2023-11-19T05:08:07;11.7;;;6.5;;
40048;SDS011;54524;55.740;37.544;2023-11-19T05:09:08;13.6;;;6.5;;
40048;SDS011;54524;55.740;37.544;2023-11-19T05:11:03;13.1;;;6.4;;
40048;SDS011;54524;55.740;37.544;2023-11-19T05:12:04;14.1;;;7.2;;
40048;SDS011;54524;55.740;37.544;2023-11-19T05:13:04;13.9;;;7.2;;
40048;SDS011;54524;55.740;37.544;2023-11-19T05:14:05;13.9;;;7.1;;
40048;SDS011;54524;55.740;37.544;2023-11-19T05:15:05;15.7;;;7.8;;
40048;SDS011;54524;55.740;37.544;2023-11-19T05:16:06;15.7;;;7.8;;
40048;SDS011;54524;55.740;37.544;2023-11-19T05:17:07;15.4;;;7.7;;
40048;SDS011;54524;55.740;37.544;2023-11-19T05:18:08;17.8;;;7.9;;
40048;SDS011;54524;55.740;37.544;2023-11-19T05:19:09;17.7;;;8;;
40048;SDS011;54524;55.740;37.544;2023-11-19T05:21:02;17.8;;;8.7;;
40048;SDS011;54524;55.740;37.544;2023-11-19T05:22:03;17.8;;;8.7;;
40048;SDS011;54524;55.740;37.544;2023-11-19T05:23:04;18.1;;;8.7;;
40048;SDS011;54524;55.740;37.544;2023-11-19T05:24:04;18.5;;;8.8;;
40048;SDS011;54524;55.740;37.544;2023-11-19T05:25:05;17.4;;;9.1;;
40048;SDS011;54524;55.740;37.544;2023-11-19T05:26:06;17.2;;;9.1;;
40048;SDS011;54524;55.740;37.544;2023-11-19T05:27:06;17.3;;;9;;
40048;SDS011;54524;55.740;37.544;2023-11-19T05:28:08;23.6;;;10;;
40048;SDS011;54524;55.740;37.544;2023-11-19T05:29:08;23.2;;;9.9;;
40048;SDS011;54524;55.740;37.544;2023-11-19T05:31:03;18.9;;;8.5;;
40048;SDS011;54524;55.740;37.544;2023-11-19T05:32:04;18.7;;;8.6;;
40048;SDS011;54524;55.740;37.544;2023-11-19T05:33:04;17.7;;;8.6;;
40048;SDS011;54524;55.740;37.544;2023-11-19T05:34:05;25.3;;;10.7;;
40048;SDS011;54524;55.740;37.544;2023-11-19T05:35:07;24.6;;;10.7;;
40048;SDS011;54524;55.740;37.544;2023-11-19T05:36:08;24.1;;;10.6;;
40048;SDS011;54524;55.740;37.544;2023-11-19T05:37:09;34.6;;;17.5;;
40048;SDS011;54524;55.740;37.544;2023-11-19T05:38:10;34.3;;;17.5;;
40048;SDS011;54524;55.740;37.544;2023-11-19T05:39:11;34.1;;;17.5;;
40048;SDS011;54524;55.740;37.544;2023-11-19T05:41:03;31.6;;;15.7;;
40048;SDS011;54524;55.740;37.544;2023-11-19T05:42:05;31.5;;;15.8;;
40048;SDS011;54524;55.740;37.544;2023-11-19T05:43:05;37.6;;;21.4;;
40048;SDS011;54524;55.740;37.544;2023-11-19T05:44:06;37.1;;;21.4;;
40048;SDS011;54524;55.740;37.544;2023-11-19T05:45:07;38;;;21.6;;
40048;SDS011;54524;55.740;37.544;2023-11-19T05:46:08;37.4;;;23.2;;
40048;SDS011;54524;55.740;37.544;2023-11-19T05:47:09;37.2;;;23.2;;
40048;SDS011;54524;55.740;37.544;2023-11-19T05:48:09;36.7;;;23;;
40048;SDS011;54524;55.740;37.544;2023-11-19T05:49:10;20.3;;;11.9;;
40048;SDS011;54524;55.740;37.544;2023-11-19T05:51:03;6.30;;;1.20;;
40048;SDS011;54524;55.740;37.544;2023-11-19T05:52:03;20.1;;;11.9;;
40048;SDS011;54524;55.740;37.544;2023-11-19T05:53:07;39.3;;;23.3;;
40048;SDS011;54524;55.740;37.544;2023-11-19T05:54:10;38.8;;;23.2;;
40048;SDS011;54524;55.740;37.544;2023-11-19T05:55:11;38.8;;;23.2;;
40048;SDS011;54524;55.740;37.544;2023-11-19T05:56:11;50.8;;;30.1;;
40048;SDS011;54524;55.740;37.544;2023-11-19T05:57:12;51;;;30;;
40048;SDS011;54524;55.740;37.544;2023-11-19T05:58:14;50.6;;;30;;
40048;SDS011;54524;55.740;37.544;2023-11-19T05:59:14;50.7;;;29.6;;
40048;SDS011;54524;55.740;37.544;2023-11-19T06:01:03;51.6;;;30;;
40048;SDS011;54524;55.740;37.544;2023-11-19T06:02:04;0;;;0;;
40048;SDS011;54524;55.740;37.544;2023-11-19T06:03:05;39.2;;;22.3;;
40048;SDS011;54524;55.740;37.544;2023-11-19T06:04:05;39.5;;;22.4;;
40048;SDS011;54524;55.740;37.544;2023-11-19T06:05:07;36.3;;;20.1;;
40048;SDS011;54524;55.740;37.544;2023-11-19T06:06:07;35.7;;;19.9;;
40048;SDS011;54524;55.740;37.544;2023-11-19T06:07:08;35.3;;;19.8;;
40048;SDS011;54524;55.740;37.544;2023-11-19T06:08:09;35.7;;;19.9;;
40048;SDS011;54524;55.740;37.544;2023-11-19T06:09:09;34.2;;;17.2;;
40048;SDS011;54524;55.740;37.544;2023-11-19T06:11:04;35.4;;;17.4;;
40048;SDS011;54524;55.740;37.544;2023-11-19T06:12:04;32.5;;;17.6;;
40048;SDS011;54524;55.740;37.544;2023-11-19T06:13:06;31.4;;;17.4;;
40048;SDS011;54524;55.740;37.544;2023-11-19T06:14:06;31.3;;;17.3;;
40048;SDS011;54524;55.740;37.544;2023-11-19T06:15:08;23;;;13.3;;
40048;SDS011;54524;55.740;37.544;2023-11-19T06:16:08;22.6;;;13.4;;
40048;SDS011;54524;55.740;37.544;2023-11-19T06:17:09;22.6;;;13.4;;
40048;SDS011;54524;55.740;37.544;2023-11-19T06:18:11;26.9;;;14.8;;
40048;SDS011;54524;55.740;37.544;2023-11-19T06:19:12;27.6;;;14.8;;
40048;SDS011;54524;55.740;37.544;2023-11-19T06:21:03;27.9;;;15;;
40048;SDS011;54524;55.740;37.544;2023-11-19T06:22:04;28.1;;;15;;
40048;SDS011;54524;55.740;37.544;2023-11-19T06:23:04;27.8;;;15;;
40048;SDS011;54524;55.740;37.544;2023-11-19T06:24:05;18.4;;;10.5;;
40048;SDS011;54524;55.740;37.544;2023-11-19T06:25:06;18.4;;;10.5;;
40048;SDS011;54524;55.740;37.544;2023-11-19T06:26:07;18.2;;;10.5;;
40048;SDS011;54524;55.740;37.544;2023-11-19T06:27:08;25.1;;;11.9;;
40048;SDS011;54524;55.740;37.544;2023-11-19T06:28:09;24.9;;;11.9;;
40048;SDS011;54524;55.740;37.544;2023-11-19T06:29:10;24.9;;;11.9;;
40048;SDS011;54524;55.740;37.544;2023-11-19T06:31:03;21.3;;;11.1;;
40048;SDS011;54524;55.740;37.544;2023-11-19T06:32:04;21.3;;;11.1;;
40048;SDS011;54524;55.740;37.544;2023-11-19T06:33:06;21.1;;;11.1;;
40048;SDS011;54524;55.740;37.544;2023-11-19T06:34:07;23.8;;;13.3;;
40048;SDS011;54524;55.740;37.544;2023-11-19T06:35:08;23.8;;;13.2;;
40048;SDS011;54524;55.740;37.544;2023-11-19T06:36:09;24.3;;;13.3;;
40048;SDS011;54524;55.740;37.544;2023-11-19T06:37:10;22.2;;;13.4;;
40048;SDS011;54524;55.740;37.544;2023-11-19T06:38:10;22.7;;;13.6;;
40048;SDS011;54524;55.740;37.544;2023-11-19T06:39:11;23.1;;;13.7;;
40048;SDS011;54524;55.740;37.544;2023-11-19T06:41:06;30.3;;;18.5;;
40048;SDS011;54524;55.740;37.544;2023-11-19T06:42:07;30.7;;;18.5;;